Time;durP1;ratioP1;P1;durP2;ratioP2;P2;SDS_P1;SDS_P2;PMS_P1;PMS_P2;Temp;Humidity;BMP_temperature;BMP_pressure;BME280_temperature;BME280_humidity;BME280_pressure;Samples;Min_cycle;Max_cycle;Signal;HPM_P1;HPM_P2
2023/04/30 00:02:12;;;;;;;7.60;7.10;;;15.50;50.50;;;;;;20708;6842;121514;-79
2023/04/30 00:04:38;;;;;;;8.35;7.85;;;15.50;50.50;;;;;;20519;6842;342137;-77
2023/04/30 00:07:04;;;;;;;8.07;7.47;;;15.50;51.10;;;;;;20725;6840;117902;-80
2023/04/30 00:09:29;;;;;;;8.13;7.62;;;15.40;51.10;;;;;;20518;6841;338488;-79
2023/04/30 00:11:55;;;;;;;8.27;7.68;;;15.40;51.30;;;;;;20524;6841;277792;-76
2023/04/30 00:14:20;;;;;;;7.83;7.43;;;15.60;50.70;;;;;;20507;6841;279268;-81
2023/04/30 00:16:46;;;;;;;8.03;7.53;;;15.80;50.40;;;;;;20521;6841;313329;-80
2023/04/30 00:19:11;;;;;;;8.20;7.60;;;15.90;50.30;;;;;;20514;6842;308141;-80
2023/04/30 00:21:37;;;;;;;8.40;7.90;;;15.90;50.70;;;;;;20519;6842;336899;-79
2023/04/30 00:24:03;;;;;;;7.80;7.30;;;16.00;50.00;;;;;;20527;6842;302235;-81
2023/04/30 00:26:29;;;;;;;6.90;6.50;;;16.00;50.70;;;;;;20719;6842;118025;-79
2023/04/30 00:28:54;;;;;;;6.87;6.27;;;15.70;50.30;;;;;;20734;6842;117153;-80
2023/04/30 00:31:19;;;;;;;7.30;6.90;;;15.30;50.90;;;;;;20517;6842;311504;-81
2023/04/30 00:33:45;;;;;;;7.00;6.60;;;15.30;51.10;;;;;;20733;6842;117599;-78
2023/04/30 00:36:11;;;;;;;7.85;7.30;;;15.20;51.10;;;;;;20496;6842;313228;-80
2023/04/30 00:38:36;;;;;;;6.77;6.37;;;15.30;51.00;;;;;;20730;6842;117364;-79
2023/04/30 00:41:02;;;;;;;6.13;5.73;;;15.30;51.10;;;;;;20730;6842;117881;-80
2023/04/30 00:43:27;;;;;;;7.27;6.87;;;15.00;51.40;;;;;;20519;6842;277717;-80
2023/04/30 00:45:53;;;;;;;6.60;6.20;;;15.10;51.20;;;;;;20732;6842;123421;-77
2023/04/30 00:48:18;;;;;;;6.37;5.97;;;15.00;51.00;;;;;;20696;6842;123543;-76
2023/04/30 00:50:45;;;;;;;6.40;6.00;;;14.80;51.30;;;;;;20729;6842;119984;-78
2023/04/30 00:53:11;;;;;;;6.53;5.93;;;14.50;51.90;;;;;;20723;6842;117150;-79
2023/04/30 00:55:37;;;;;;;6.87;6.37;;;14.40;51.80;;;;;;20728;6842;117988;-79
2023/04/30 00:58:04;;;;;;;5.80;5.40;;;14.30;51.70;;;;;;20724;6842;118096;-78
2023/04/30 01:00:30;;;;;;;7.07;6.57;;;14.20;52.20;;;;;;20497;6842;338123;-79
2023/04/30 01:02:55;;;;;;;7.27;6.80;;;14.50;52.30;;;;;;20514;6842;278184;-79
2023/04/30 01:05:21;;;;;;;6.77;6.37;;;14.90;51.50;;;;;;20727;6842;118245;-76
2023/04/30 01:07:46;;;;;;;7.33;6.93;;;14.80;51.80;;;;;;20503;6842;308175;-75
2023/04/30 01:10:12;;;;;;;6.93;6.53;;;15.00;51.00;;;;;;20497;6842;304324;-80
2023/04/30 01:12:44;;;;;;;6.90;6.50;;;15.20;50.30;;;;;;20517;6842;291136;-76
2023/04/30 01:15:16;;;;;;;6.97;6.50;;;15.50;49.70;;;;;;20513;6842;312028;-79
2023/04/30 01:17:43;;;;;;;6.20;5.83;;;15.30;50.20;;;;;;20739;6840;117365;-76
2023/04/30 01:20:08;;;;;;;7.00;6.60;;;15.30;49.90;;;;;;20488;6841;278144;-77
2023/04/30 01:22:35;;;;;;;7.20;6.80;;;15.30;49.90;;;;;;20528;6841;307754;-81
2023/04/30 01:25:06;;;;;;;6.67;6.20;;;15.50;50.00;;;;;;20718;6841;117540;-76
2023/04/30 01:27:52;;;;;;;7.12;6.72;;;15.30;49.70;;;;;;20497;6841;341696;-76
2023/04/30 01:30:17;;;;;;;6.17;5.77;;;15.20;49.70;;;;;;20676;6842;117525;-78
2023/04/30 01:32:43;;;;;;;6.40;6.00;;;15.00;49.80;;;;;;20727;6842;117851;-79
2023/04/30 01:35:09;;;;;;;7.57;6.97;;;14.70;50.30;;;;;;20515;6842;341072;-78
2023/04/30 01:37:54;;;;;;;6.07;5.67;;;14.80;50.40;;;;;;20720;6842;118038;-76
2023/04/30 01:40:20;;;;;;;6.23;5.83;;;14.70;50.40;;;;;;20684;6842;117589;-77
2023/04/30 01:42:53;;;;;;;7.18;6.68;;;14.40;50.80;;;;;;20490;6842;302709;-80
2023/04/30 01:45:31;;;;;;;6.57;6.07;;;14.60;50.80;;;;;;20712;6842;121583;-76
2023/04/30 01:48:14;;;;;;;7.32;6.82;;;14.50;50.70;;;;;;20487;6842;337616;-77
2023/04/30 01:50:52;;;;;;;7.10;6.70;;;14.70;50.70;;;;;;19694;6842;308195;-78
2023/04/30 01:53:19;;;;;;;6.10;5.70;;;14.80;50.10;;;;;;20710;6842;119225;-76
2023/04/30 01:55:54;;;;;;;7.13;6.73;;;14.80;50.10;;;;;;20338;6842;278112;-77
2023/04/30 01:58:19;;;;;;;6.23;5.83;;;14.90;50.20;;;;;;20701;6842;119936;-77
2023/04/30 02:00:47;;;;;;;5.87;5.47;;;14.60;50.50;;;;;;20721;6842;117333;-80
2023/04/30 02:03:13;;;;;;;6.87;6.47;;;14.60;50.20;;;;;;20526;6842;277745;-76
2023/04/30 02:05:39;;;;;;;7.17;6.73;;;14.60;50.20;;;;;;20515;6842;278094;-77
2023/04/30 02:08:05;;;;;;;6.50;6.00;;;14.90;49.80;;;;;;20727;6842;117583;-80
2023/04/30 02:10:30;;;;;;;6.37;5.97;;;14.80;49.70;;;;;;20584;6842;118465;-80
2023/04/30 02:12:56;;;;;;;6.27;5.67;;;14.50;50.10;;;;;;20727;6842;117195;-77
2023/04/30 02:15:21;;;;;;;6.73;6.30;;;14.20;50.60;;;;;;20725;6842;123477;-79
2023/04/30 02:17:48;;;;;;;6.90;6.40;;;14.00;51.00;;;;;;20511;6842;337224;-78
2023/04/30 02:20:14;;;;;;;6.63;6.07;;;14.20;51.10;;;;;;20708;6842;117356;-77
2023/04/30 02:22:40;;;;;;;6.85;6.45;;;14.40;50.60;;;;;;20511;6842;308598;-77
2023/04/30 02:25:07;;;;;;;7.37;6.77;;;14.80;50.00;;;;;;20515;6842;308167;-77
2023/04/30 02:27:33;;;;;;;7.15;6.68;;;15.00;49.80;;;;;;20517;6842;308317;-80
2023/04/30 02:29:59;;;;;;;6.90;6.50;;;14.90;49.70;;;;;;20519;6840;308603;-80
2023/04/30 02:32:24;;;;;;;6.90;6.50;;;15.10;49.40;;;;;;20492;6841;279179;-79
2023/04/30 02:34:50;;;;;;;6.43;5.93;;;15.20;49.20;;;;;;20729;6841;119605;-78
2023/04/30 02:37:17;;;;;;;6.00;5.60;;;14.70;50.00;;;;;;20732;6841;117228;-77
2023/04/30 02:39:44;;;;;;;6.03;5.63;;;14.30;50.40;;;;;;20724;6841;117712;-80
2023/04/30 02:42:10;;;;;;;5.50;5.20;;;14.30;50.40;;;;;;20711;6842;117679;-77
2023/04/30 02:44:35;;;;;;;6.13;5.73;;;14.00;50.70;;;;;;20727;6842;117234;-77
2023/04/30 02:47:02;;;;;;;7.15;6.60;;;13.80;51.00;;;;;;20522;6842;307717;-78
2023/04/30 02:49:27;;;;;;;6.43;6.03;;;14.00;51.70;;;;;;20731;6842;117102;-77
2023/04/30 02:51:54;;;;;;;7.68;7.07;;;14.00;51.50;;;;;;20514;6842;336790;-77
2023/04/30 02:54:20;;;;;;;6.53;6.13;;;14.00;51.20;;;;;;20715;6842;119892;-80
2023/04/30 02:56:46;;;;;;;7.20;6.70;;;14.00;51.20;;;;;;20729;6842;117763;-77
2023/04/30 02:59:13;;;;;;;6.80;6.30;;;13.80;51.40;;;;;;20728;6842;122961;-77
2023/04/30 03:01:38;;;;;;;7.47;7.00;;;13.50;51.70;;;;;;20514;6842;311478;-77
2023/04/30 03:04:04;;;;;;;6.37;5.97;;;13.70;52.10;;;;;;20726;6842;117042;-76
2023/04/30 03:06:31;;;;;;;44.75;40.60;;;13.70;51.90;;;;;;20497;6842;337343;-80
2023/04/30 03:08:56;;;;;;;6.70;6.30;;;13.80;52.00;;;;;;20726;6842;118129;-77
2023/04/30 03:11:22;;;;;;;7.50;6.80;;;13.70;51.90;;;;;;20726;6842;117174;-81
2023/04/30 03:13:52;;;;;;;6.67;6.17;;;13.30;52.50;;;;;;20725;6842;117209;-80
2023/04/30 03:16:17;;;;;;;7.93;7.33;;;13.20;52.40;;;;;;20712;6842;117184;-77
2023/04/30 03:18:43;;;;;;;7.07;6.67;;;13.10;52.60;;;;;;20720;6842;117334;-80
2023/04/30 03:21:08;;;;;;;8.27;7.78;;;13.00;52.90;;;;;;20514;6842;336823;-77
2023/04/30 03:23:35;;;;;;;8.60;8.00;;;13.20;53.30;;;;;;20524;6842;307640;-80
2023/04/30 03:26:00;;;;;;;7.80;7.07;;;13.60;52.80;;;;;;20728;6842;117141;-76
2023/04/30 03:28:26;;;;;;;7.13;6.63;;;13.60;52.50;;;;;;20707;6842;120014;-80
2023/04/30 03:30:52;;;;;;;9.00;8.37;;;13.50;52.80;;;;;;20518;6842;326358;-79
2023/04/30 03:33:18;;;;;;;7.97;7.47;;;13.50;52.70;;;;;;20729;6842;117756;-77
2023/04/30 03:35:43;;;;;;;10.63;9.73;;;13.50;52.50;;;;;;20516;6842;315625;-76
2023/04/30 03:38:10;;;;;;;8.30;7.70;;;13.60;52.40;;;;;;20704;6842;125724;-76
2023/04/30 03:40:35;;;;;;;7.67;7.17;;;13.60;52.30;;;;;;20734;6840;123510;-77
2023/04/30 03:43:02;;;;;;;9.13;8.60;;;13.50;53.40;;;;;;20521;6841;291344;-77
2023/04/30 03:45:27;;;;;;;9.50;8.80;;;13.50;52.70;;;;;;20519;6841;336469;-80
2023/04/30 03:47:54;;;;;;;9.43;8.77;;;14.00;51.70;;;;;;20519;6841;309338;-80
2023/04/30 03:50:19;;;;;;;8.90;8.10;;;14.00;51.60;;;;;;20712;6841;123695;-80
2023/04/30 03:52:45;;;;;;;9.02;8.43;;;13.90;51.60;;;;;;20522;6842;278238;-77
2023/04/30 03:55:10;;;;;;;10.13;9.23;;;13.90;51.80;;;;;;20520;6842;341227;-80
2023/04/30 03:57:36;;;;;;;8.47;7.77;;;14.00;51.60;;;;;;20725;6842;123172;-78
2023/04/30 04:00:01;;;;;;;9.70;9.00;;;13.80;51.60;;;;;;20509;6842;308771;-77
2023/04/30 04:02:28;;;;;;;8.70;8.10;;;13.80;51.70;;;;;;20707;6842;119544;-76
2023/04/30 04:04:54;;;;;;;8.70;8.00;;;13.70;51.90;;;;;;20716;6842;117790;-80
2023/04/30 04:07:20;;;;;;;8.37;7.73;;;13.10;52.70;;;;;;20730;6842;117472;-79
2023/04/30 04:09:45;;;;;;;12.10;11.20;;;13.00;52.60;;;;;;20518;6842;311865;-78
2023/04/30 04:12:12;;;;;;;9.50;8.80;;;13.20;53.50;;;;;;20708;6842;142264;-79
2023/04/30 04:14:37;;;;;;;9.73;9.13;;;13.20;52.90;;;;;;20524;6842;336391;-76
2023/04/30 04:17:04;;;;;;;9.90;9.02;;;13.40;53.00;;;;;;20522;6842;308630;-77
2023/04/30 04:19:28;;;;;;;8.60;7.90;;;13.60;52.50;;;;;;20726;6842;117132;-80
2023/04/30 04:21:54;;;;;;;10.20;9.45;;;13.50;52.30;;;;;;20517;6842;308980;-77
2023/04/30 04:24:20;;;;;;;9.10;8.40;;;13.60;52.50;;;;;;20711;6842;117574;-78
2023/04/30 04:26:45;;;;;;;9.88;9.18;;;13.40;52.40;;;;;;20515;6842;321866;-78
2023/04/30 04:29:12;;;;;;;9.63;8.98;;;13.50;52.60;;;;;;20523;6842;283696;-80
2023/04/30 04:31:40;;;;;;;8.87;8.17;;;13.60;52.40;;;;;;20722;6842;117392;-76
2023/04/30 04:34:04;;;;;;;8.60;7.70;;;13.60;52.40;;;;;;20717;6842;123121;-76
2023/04/30 04:36:33;;;;;;;8.43;7.73;;;13.40;52.80;;;;;;20710;6842;119288;-78
2023/04/30 04:39:00;;;;;;;10.20;9.40;;;13.30;53.30;;;;;;20500;6842;312220;-77
2023/04/30 04:41:26;;;;;;;8.90;8.30;;;13.30;53.30;;;;;;20702;6842;117643;-77
2023/04/30 04:43:51;;;;;;;9.77;8.97;;;13.30;53.10;;;;;;20723;6842;117698;-77
2023/04/30 04:46:17;;;;;;;9.30;8.60;;;13.10;53.20;;;;;;20694;6842;121305;-80
2023/04/30 04:48:43;;;;;;;10.70;9.98;;;13.00;53.50;;;;;;20516;6842;340988;-81
2023/04/30 04:51:08;;;;;;;8.77;8.17;;;13.20;53.50;;;;;;20764;6842;117266;-80
2023/04/30 04:53:34;;;;;;;10.17;9.57;;;13.30;53.20;;;;;;20522;6840;308423;-77
2023/04/30 04:55:59;;;;;;;8.80;8.20;;;13.50;53.20;;;;;;20725;6841;117398;-77
2023/04/30 04:58:25;;;;;;;9.68;8.85;;;13.30;53.10;;;;;;20717;6841;117219;-77
2023/04/30 05:00:51;;;;;;;10.80;10.00;;;13.30;53.10;;;;;;20511;6841;321537;-76
2023/04/30 05:03:19;;;;;;;9.50;8.70;;;13.50;53.20;;;;;;20723;6842;117964;-80
2023/04/30 05:05:42;;;;;;;10.40;9.70;;;13.60;53.00;;;;;;20485;6842;308209;-77
2023/04/30 05:08:08;;;;;;;9.80;9.00;;;13.80;52.70;;;;;;20689;6842;118387;-77
2023/04/30 05:10:33;;;;;;;10.93;10.23;;;13.80;52.60;;;;;;20510;6842;307405;-80
2023/04/30 05:12:59;;;;;;;10.37;9.67;;;13.90;52.50;;;;;;20506;6842;278154;-81
2023/04/30 05:15:26;;;;;;;9.55;8.85;;;14.20;51.90;;;;;;20727;6842;117417;-77
2023/04/30 05:17:51;;;;;;;9.20;8.40;;;14.10;51.80;;;;;;20718;6842;117195;-79
2023/04/30 05:20:17;;;;;;;10.82;10.02;;;13.90;52.60;;;;;;20501;6842;278729;-77
2023/04/30 05:22:45;;;;;;;9.87;9.10;;;14.00;52.10;;;;;;20718;6841;119881;-79
2023/04/30 05:25:10;;;;;;;8.97;8.27;;;14.00;51.90;;;;;;20706;6842;117279;-77
2023/04/30 05:27:36;;;;;;;10.80;10.00;;;13.80;52.10;;;;;;20514;6842;310501;-81
2023/04/30 05:30:01;;;;;;;10.30;9.70;;;14.00;52.20;;;;;;20508;6842;339623;-78
2023/04/30 05:32:27;;;;;;;11.00;10.30;;;14.40;51.60;;;;;;20479;6842;299934;-81
2023/04/30 05:34:53;;;;;;;10.38;9.52;;;14.70;51.10;;;;;;20717;6842;120286;-77
2023/04/30 05:37:19;;;;;;;9.27;8.67;;;14.60;50.90;;;;;;20722;6842;119138;-81
2023/04/30 05:39:44;;;;;;;11.37;10.47;;;14.40;51.30;;;;;;20514;6842;307377;-80
2023/04/30 05:42:10;;;;;;;10.93;10.13;;;14.70;50.50;;;;;;20488;6842;287176;-80
2023/04/30 05:44:36;;;;;;;11.27;10.47;;;14.90;50.30;;;;;;20509;6842;282579;-82
2023/04/30 05:47:02;;;;;;;9.73;9.07;;;14.90;50.30;;;;;;20722;6842;117557;-77
2023/04/30 05:49:28;;;;;;;9.53;8.77;;;14.60;50.80;;;;;;20730;6842;116465;-76
2023/04/30 05:51:54;;;;;;;10.90;10.20;;;14.60;50.80;;;;;;20515;6842;337280;-77
2023/04/30 05:54:19;;;;;;;11.10;10.40;;;14.70;50.70;;;;;;20493;6842;307338;-76
2023/04/30 05:56:45;;;;;;;9.93;9.00;;;14.90;50.20;;;;;;20721;6842;119194;-77
2023/04/30 05:59:10;;;;;;;9.57;8.70;;;14.80;50.20;;;;;;20714;6842;120296;-76
2023/04/30 06:01:36;;;;;;;9.63;8.93;;;14.60;50.70;;;;;;20716;6842;123885;-79
2023/04/30 06:04:03;;;;;;;11.70;10.80;;;14.40;51.10;;;;;;20526;6840;307302;-78
2023/04/30 06:06:27;;;;;;;11.15;10.45;;;14.60;50.90;;;;;;20496;6841;278211;-74
2023/04/30 06:08:53;;;;;;;11.05;10.32;;;14.90;50.50;;;;;;20523;6841;302771;-74
2023/04/30 06:11:18;;;;;;;10.77;9.90;;;15.30;49.70;;;;;;20519;6841;279122;-73
2023/04/30 06:13:44;;;;;;;11.27;10.48;;;15.50;49.70;;;;;;20516;6841;312667;-78
2023/04/30 06:16:09;;;;;;;10.90;10.10;;;15.70;49.10;;;;;;20477;6842;337239;-75
2023/04/30 06:18:35;;;;;;;9.60;8.90;;;15.80;48.60;;;;;;20727;6842;117671;-73
2023/04/30 06:21:01;;;;;;;9.10;8.50;;;15.50;49.40;;;;;;20729;6842;117304;-73
2023/04/30 06:23:27;;;;;;;11.33;10.57;;;15.40;49.30;;;;;;20521;6842;277719;-74
2023/04/30 06:25:52;;;;;;;10.90;10.23;;;15.50;49.00;;;;;;20530;6842;279010;-72
2023/04/30 06:28:19;;;;;;;9.98;9.07;;;15.70;49.40;;;;;;20716;6842;117522;-72
2023/04/30 06:30:44;;;;;;;11.18;10.38;;;15.60;49.00;;;;;;20505;6842;314404;-74
2023/04/30 06:33:11;;;;;;;9.80;9.10;;;15.70;49.00;;;;;;20725;6842;117898;-74
2023/04/30 06:35:36;;;;;;;10.85;10.05;;;15.70;49.00;;;;;;20517;6842;288757;-75
2023/04/30 06:38:02;;;;;;;11.07;10.37;;;15.90;48.90;;;;;;20506;6842;337358;-73
2023/04/30 06:40:28;;;;;;;11.30;10.57;;;16.30;47.70;;;;;;20471;6842;278139;-75
2023/04/30 06:42:54;;;;;;;9.90;9.23;;;16.30;47.70;;;;;;20704;6842;120714;-74
2023/04/30 06:45:19;;;;;;;9.60;8.80;;;16.20;47.90;;;;;;20697;6842;119753;-74
2023/04/30 06:47:45;;;;;;;10.50;9.80;;;15.90;48.40;;;;;;20493;6842;307790;-74
2023/04/30 06:50:10;;;;;;;9.60;9.00;;;16.00;48.50;;;;;;20675;6842;145198;-72
2023/04/30 06:52:36;;;;;;;10.57;9.90;;;16.00;48.40;;;;;;20477;6842;337874;-72
2023/04/30 06:55:02;;;;;;;9.70;9.00;;;16.20;48.10;;;;;;20723;6842;121210;-73
2023/04/30 06:57:28;;;;;;;10.98;10.27;;;16.20;48.30;;;;;;20513;6842;333878;-73
2023/04/30 06:59:54;;;;;;;9.77;9.07;;;16.30;47.40;;;;;;20722;6842;118556;-72
2023/04/30 07:02:21;;;;;;;10.43;9.77;;;16.50;47.30;;;;;;20493;6842;308168;-74
2023/04/30 07:04:46;;;;;;;9.30;8.53;;;16.50;47.20;;;;;;20721;6842;120473;-71
2023/04/30 07:07:12;;;;;;;10.80;9.90;;;16.70;46.80;;;;;;20503;6842;311829;-73
2023/04/30 07:09:37;;;;;;;10.45;9.85;;;16.70;46.70;;;;;;20484;6842;335826;-72
2023/04/30 07:12:03;;;;;;;10.93;10.03;;;17.00;46.70;;;;;;20497;6842;326098;-73
2023/04/30 07:14:28;;;;;;;9.67;9.10;;;17.20;46.30;;;;;;20697;6842;118122;-72
2023/04/30 07:16:54;;;;;;;9.43;8.82;;;17.20;46.50;;;;;;20493;6840;310362;-73
2023/04/30 07:19:19;;;;;;;7.83;7.33;;;17.30;45.60;;;;;;20717;6841;120629;-72
2023/04/30 07:21:45;;;;;;;9.45;8.85;;;17.20;46.00;;;;;;20524;6841;278170;-74
2023/04/30 07:24:11;;;;;;;8.30;7.70;;;17.40;46.30;;;;;;20704;6841;131168;-74
2023/04/30 07:26:37;;;;;;;7.40;6.62;;;17.60;47.00;;;;;;20724;6842;118614;-73
2023/04/30 07:29:03;;;;;;;7.43;7.00;;;17.70;47.00;;;;;;20716;6842;117148;-74
2023/04/30 07:31:29;;;;;;;7.20;6.70;;;17.60;46.90;;;;;;20716;6842;117519;-73
2023/04/30 07:33:55;;;;;;;6.93;6.50;;;17.80;46.60;;;;;;20705;6842;117051;-73
2023/04/30 07:36:20;;;;;;;7.30;6.90;;;17.80;46.60;;;;;;20476;6842;308645;-71
2023/04/30 07:38:46;;;;;;;8.35;7.85;;;18.20;45.40;;;;;;20498;6842;303517;-72
2023/04/30 07:41:11;;;;;;;7.53;7.03;;;18.80;44.10;;;;;;20709;6842;117167;-74
2023/04/30 07:43:37;;;;;;;6.13;5.80;;;19.00;44.10;;;;;;20720;6842;120133;-75
2023/04/30 07:46:02;;;;;;;7.90;7.40;;;18.90;44.30;;;;;;20733;6842;117247;-73
2023/04/30 07:48:28;;;;;;;7.30;6.82;;;18.70;44.30;;;;;;20511;6842;279228;-73
2023/04/30 07:50:55;;;;;;;6.60;6.20;;;18.90;42.50;;;;;;20731;6842;120189;-73
2023/04/30 07:53:21;;;;;;;7.53;7.03;;;18.90;42.10;;;;;;20526;6842;279266;-73
2023/04/30 07:55:46;;;;;;;7.57;7.17;;;18.90;42.10;;;;;;20505;6842;278633;-72
2023/04/30 07:58:12;;;;;;;7.17;6.67;;;19.10;41.60;;;;;;20675;6842;118504;-73
2023/04/30 08:00:38;;;;;;;8.13;7.63;;;19.00;41.60;;;;;;20493;6842;307331;-72
2023/04/30 08:03:04;;;;;;;7.90;7.40;;;18.90;41.60;;;;;;20490;6842;311746;-74
2023/04/30 08:05:30;;;;;;;7.90;7.30;;;19.20;41.20;;;;;;20500;6842;309707;-74
2023/04/30 08:07:56;;;;;;;7.07;6.63;;;19.10;41.00;;;;;;20708;6842;117648;-73
2023/04/30 08:10:22;;;;;;;7.43;6.90;;;19.00;41.50;;;;;;20492;6842;337229;-74
2023/04/30 08:12:47;;;;;;;6.85;6.45;;;19.00;41.10;;;;;;20524;6842;278206;-73
2023/04/30 08:15:13;;;;;;;6.53;6.15;;;19.40;41.50;;;;;;20728;6842;117795;-73
2023/04/30 08:17:39;;;;;;;6.20;5.80;;;19.50;41.80;;;;;;20716;6842;117629;-72
2023/04/30 08:20:05;;;;;;;5.57;5.27;;;19.50;41.80;;;;;;20719;6842;117765;-73
2023/04/30 08:22:30;;;;;;;6.57;6.17;;;19.40;42.30;;;;;;20702;6842;124181;-72
2023/04/30 08:24:56;;;;;;;5.87;5.47;;;19.40;41.90;;;;;;20725;6842;117647;-75
2023/04/30 08:27:23;;;;;;;5.87;5.57;;;19.10;41.60;;;;;;20721;6840;120381;-73
2023/04/30 08:29:48;;;;;;;6.00;5.70;;;18.80;41.40;;;;;;20734;6841;117064;-73
2023/04/30 08:32:14;;;;;;;6.00;5.50;;;18.70;41.80;;;;;;20711;6841;121173;-74
2023/04/30 08:34:42;;;;;;;5.45;5.15;;;18.80;41.40;;;;;;20523;6841;282511;-73
2023/04/30 08:37:06;;;;;;;5.90;5.60;;;18.80;41.40;;;;;;20511;6841;307698;-73
2023/04/30 08:39:32;;;;;;;5.60;5.30;;;19.50;39.90;;;;;;20512;6842;294030;-74
2023/04/30 08:41:58;;;;;;;5.17;4.87;;;19.50;39.90;;;;;;20728;6842;117049;-73
2023/04/30 08:44:23;;;;;;;4.70;4.50;;;19.50;39.90;;;;;;20694;6842;117481;-77
2023/04/30 08:46:52;;;;;;;4.97;4.77;;;19.40;39.90;;;;;;20507;6842;308109;-74
2023/04/30 08:49:18;;;;;;;5.30;5.00;;;19.40;39.90;;;;;;20722;6842;117171;-74
2023/04/30 08:51:43;;;;;;;5.65;5.35;;;19.50;40.40;;;;;;20514;6842;281931;-74
2023/04/30 08:54:09;;;;;;;4.87;4.57;;;19.70;38.60;;;;;;20709;6842;121685;-74
2023/04/30 08:56:35;;;;;;;4.80;4.60;;;19.80;37.50;;;;;;20515;6842;299106;-74
2023/04/30 08:59:01;;;;;;;4.60;4.40;;;19.70;37.40;;;;;;20734;6842;117597;-74
2023/04/30 09:01:26;;;;;;;4.97;4.67;;;19.70;38.10;;;;;;20520;6842;317755;-75
2023/04/30 09:03:52;;;;;;;5.32;4.87;;;19.80;38.80;;;;;;20729;6842;117547;-75
2023/04/30 09:06:18;;;;;;;5.20;4.90;;;19.60;38.80;;;;;;20711;6842;119358;-75
2023/04/30 09:08:47;;;;;;;4.60;4.40;;;19.60;38.50;;;;;;20730;6842;117420;-74
2023/04/30 09:11:29;;;;;;;5.30;5.00;;;19.40;38.90;;;;;;20696;6842;117099;-75
2023/04/30 09:13:56;;;;;;;4.70;4.40;;;19.20;39.00;;;;;;20478;6842;308503;-74
2023/04/30 09:16:21;;;;;;;4.60;4.30;;;19.40;39.10;;;;;;20658;6842;117733;-75
2023/04/30 09:18:47;;;;;;;4.17;3.87;;;19.50;39.00;;;;;;20721;6842;117965;-75
2023/04/30 09:21:13;;;;;;;4.47;4.27;;;19.40;38.90;;;;;;20707;6842;118233;-75
2023/04/30 09:23:57;;;;;;;4.10;3.90;;;19.30;38.80;;;;;;20733;6842;117024;-76
2023/04/30 09:26:39;;;;;;;4.80;4.50;;;19.20;39.10;;;;;;20480;6842;303954;-73
2023/04/30 09:29:12;;;;;;;4.43;4.22;;;19.50;37.20;;;;;;20530;6842;307771;-72
2023/04/30 09:31:38;;;;;;;4.00;3.80;;;20.00;37.10;;;;;;20714;6842;117706;-75
2023/04/30 09:34:08;;;;;;;4.50;4.30;;;20.00;37.10;;;;;;20504;6842;278326;-76
2023/04/30 09:36:34;;;;;;;4.80;4.60;;;20.20;36.00;;;;;;20450;6842;337392;-73
2023/04/30 09:39:19;;;;;;;4.33;4.13;;;20.50;35.70;;;;;;20512;6631;278189;31
2023/04/30 09:42:09;;;;;;;4.55;4.35;;;20.90;36.30;;;;;;20517;6646;335991;-73
2023/04/30 09:44:49;;;;;;;5.00;4.80;;;20.80;36.50;;;;;;20874;6759;121628;-75
2023/04/30 09:47:22;;;;;;;4.70;4.40;;;20.70;36.40;;;;;;20796;6775;117358;-77
2023/04/30 09:49:58;;;;;;;4.70;4.50;;;20.40;36.80;;;;;;20529;6790;306411;-75
2023/04/30 09:52:37;;;;;;;4.60;4.40;;;20.40;35.70;;;;;;20802;6769;120169;-73
2023/04/30 09:55:13;;;;;;;4.60;4.40;;;20.30;36.30;;;;;;20555;6790;308259;-73
2023/04/30 09:57:46;;;;;;;5.00;4.70;;;20.30;35.60;;;;;;20557;6774;306310;-73
2023/04/30 10:00:21;;;;;;;4.93;4.62;;;20.50;35.70;;;;;;20526;6774;339625;-73
2023/04/30 10:02:57;;;;;;;4.10;3.90;;;20.80;35.50;;;;;;20713;6799;116697;-73
2023/04/30 10:05:45;;;;;;;4.40;4.20;;;20.60;35.80;;;;;;20833;6765;119353;-72
2023/04/30 10:08:38;;;;;;;4.70;4.50;;;20.40;36.40;;;;;;20622;6748;277651;-72
2023/04/30 10:11:18;;;;;;;7.20;6.83;;;20.50;36.40;;;;;;20440;6805;310351;-72
2023/04/30 10:13:55;;;;;;;4.27;4.07;;;20.80;34.90;;;;;;20889;6734;118440;-73
2023/04/30 10:16:31;;;;;;;5.07;4.87;;;20.60;35.60;;;;;;20510;6773;337583;-75
2023/04/30 10:19:07;;;;;;;4.77;4.57;;;20.60;35.80;;;;;;20604;6747;276967;-74
2023/04/30 10:21:42;;;;;;;5.47;5.00;;;20.80;35.30;;;;;;20737;6744;117680;-79
2023/04/30 10:24:18;;;;;;;5.43;5.05;;;20.60;36.40;;;;;;20608;6747;277637;-74
2023/04/30 10:26:53;;;;;;;4.17;3.97;;;20.60;35.50;;;;;;20840;6747;117384;-73
2023/04/30 10:29:29;;;;;;;4.20;3.90;;;20.50;36.30;;;;;;20844;6747;117420;-72
2023/04/30 10:32:05;;;;;;;4.40;4.10;;;20.20;36.80;;;;;;20683;6747;121631;-72
2023/04/30 10:34:50;;;;;;;4.63;4.43;;;20.10;36.90;;;;;;20632;6747;307947;-72
2023/04/30 10:37:39;;;;;;;5.25;4.85;;;20.30;35.20;;;;;;20625;6750;340896;-71
2023/04/30 10:40:15;;;;;;;4.60;4.30;;;20.60;34.80;;;;;;20582;6747;309564;-72
2023/04/30 10:42:50;;;;;;;4.00;3.80;;;20.70;34.00;;;;;;20866;6736;117232;-71
2023/04/30 10:45:38;;;;;;;4.20;4.00;;;20.50;34.60;;;;;;20885;6736;116948;-72
2023/04/30 10:48:13;;;;;;;3.83;3.63;;;20.20;35.10;;;;;;20859;6736;117477;-74
2023/04/30 10:50:49;;;;;;;4.47;4.10;;;20.00;35.60;;;;;;20617;6736;301824;-75
2023/04/30 10:53:27;;;;;;;4.03;3.80;;;20.30;34.50;;;;;;20690;6735;277057;-77
2023/04/30 10:56:07;;;;;;;3.95;3.62;;;20.30;35.10;;;;;;20680;6735;287224;-81
2023/04/30 10:58:39;;;;;;;4.10;3.80;;;20.50;34.50;;;;;;20665;6735;306011;-74
2023/04/30 11:01:16;;;;;;;3.80;3.60;;;20.70;34.00;;;;;;20571;6735;307434;-74
2023/04/30 11:04:08;;;;;;;4.03;3.83;;;20.90;33.40;;;;;;20633;6750;340721;-73
2023/04/30 11:06:54;;;;;;;3.70;3.50;;;21.00;33.10;;;;;;20624;6765;277590;-72
2023/04/30 11:09:36;;;;;;;3.73;3.53;;;21.10;33.00;;;;;;20682;6735;291920;-73
2023/04/30 11:12:13;;;;;;;3.50;3.30;;;21.20;33.20;;;;;;20652;6736;119508;-73
2023/04/30 11:14:49;;;;;;;3.75;3.55;;;20.90;32.90;;;;;;20686;6736;276021;-74
2023/04/30 11:17:25;;;;;;;3.50;3.30;;;20.80;32.80;;;;;;20895;6736;120703;-75
2023/04/30 11:20:00;;;;;;;3.30;3.10;;;20.70;33.50;;;;;;20879;6736;117040;-72
2023/04/30 11:22:36;;;;;;;3.60;3.40;;;20.40;33.80;;;;;;20665;6735;310728;-71
2023/04/30 11:25:15;;;;;;;3.65;3.45;;;20.50;34.60;;;;;;20678;6736;335230;-72
2023/04/30 11:27:50;;;;;;;3.40;3.30;;;20.80;33.90;;;;;;20679;6736;281167;-73
2023/04/30 11:30:29;;;;;;;3.30;3.10;;;21.10;32.40;;;;;;20825;6736;118245;-72
2023/04/30 11:33:01;;;;;;;3.50;3.30;;;21.00;32.80;;;;;;20898;6736;117522;-74
2023/04/30 11:35:37;;;;;;;3.80;3.60;;;20.70;33.10;;;;;;20880;6736;117046;-73
2023/04/30 11:38:13;;;;;;;3.87;3.67;;;20.40;33.20;;;;;;20877;6736;119298;-74
2023/04/30 11:40:48;;;;;;;3.97;3.77;;;20.10;33.40;;;;;;20816;6736;121308;-72
2023/04/30 11:43:27;;;;;;;3.87;3.57;;;19.90;33.70;;;;;;20895;6736;117386;-71
2023/04/30 11:46:07;;;;;;;3.83;3.63;;;19.50;33.80;;;;;;20893;6736;117359;-74
2023/04/30 11:48:43;;;;;;;3.57;3.37;;;19.40;34.10;;;;;;20871;6736;117153;-75
2023/04/30 11:51:22;;;;;;;13.93;3.90;;;19.40;34.10;;;;;;20770;6736;117237;-73
2023/04/30 11:53:57;;;;;;;3.80;3.60;;;19.40;34.20;;;;;;20681;6736;276298;-74
2023/04/30 11:56:32;;;;;;;3.85;3.67;;;19.70;34.00;;;;;;20664;6729;304599;-74
2023/04/30 11:59:12;;;;;;;3.23;3.03;;;20.10;33.60;;;;;;20867;6744;117022;-75
2023/04/30 12:01:49;;;;;;;3.70;3.50;;;20.20;33.80;;;;;;20716;6744;118750;-74
2023/04/30 12:04:25;;;;;;;3.27;3.10;;;20.10;33.90;;;;;;20898;6728;122541;-74
2023/04/30 12:07:01;;;;;;;3.33;3.17;;;19.90;33.80;;;;;;20912;6728;116575;-74
2023/04/30 12:09:56;;;;;;;4.23;3.30;;;19.70;33.90;;;;;;20915;6729;116880;-74
2023/04/30 12:12:32;;;;;;;3.17;2.97;;;19.60;34.40;;;;;;20760;6768;125299;-75
2023/04/30 12:15:11;;;;;;;3.00;2.80;;;19.60;34.40;;;;;;20773;6769;117213;-75
2023/04/30 12:17:47;;;;;;;2.97;2.87;;;19.60;34.30;;;;;;20834;6764;117663;-74
2023/04/30 12:20:22;;;;;;;3.30;3.10;;;19.60;34.40;;;;;;20583;6748;302293;-75
2023/04/30 12:23:00;;;;;;;3.40;3.20;;;20.00;34.50;;;;;;20639;6748;281143;-74
2023/04/30 12:25:39;;;;;;;3.60;3.40;;;20.90;32.60;;;;;;20647;6748;313937;-75
2023/04/30 12:28:15;;;;;;;3.37;3.20;;;20.90;32.60;;;;;;20834;6748;123200;-75
2023/04/30 12:30:51;;;;;;;4.90;4.57;;;21.00;32.00;;;;;;20519;6763;279298;-75
2023/04/30 12:33:26;;;;;;;3.10;3.00;;;21.00;32.00;;;;;;20606;6763;277941;-75
2023/04/30 12:36:02;;;;;;;3.20;3.00;;;21.30;31.20;;;;;;20633;6763;340123;-75
2023/04/30 12:38:42;;;;;;;2.90;2.70;;;21.60;31.80;;;;;;20627;6748;279987;-76
2023/04/30 12:41:18;;;;;;;3.40;3.20;;;21.60;31.80;;;;;;20695;6763;118086;-76
2023/04/30 12:43:53;;;;;;;3.40;3.10;;;21.50;32.10;;;;;;20689;6733;305079;-76
2023/04/30 12:46:28;;;;;;;3.27;3.13;;;21.70;31.80;;;;;;20635;6789;305247;-74